createdAt,value
2022-09-28T00:01:19.898Z,99672.90
2022-09-28T00:03:50.374Z,99678.35
2022-09-28T00:06:21.730Z,99683.60
2022-09-28T00:08:50.320Z,99678.08
2022-09-28T00:11:20.947Z,99664.20
2022-09-28T00:13:52.471Z,99659.20
2022-09-28T00:16:27.074Z,99670.30
2022-09-28T00:18:55.491Z,99667.88
2022-09-28T00:21:25.949Z,99664.75
2022-09-28T00:24:15.801Z,99659.69
2022-09-28T00:26:55.318Z,99653.68
2022-09-28T00:29:30.040Z,99648.19
2022-09-28T00:32:03.135Z,99648.67
2022-09-28T00:34:41.436Z,99646.58
2022-09-28T00:37:10.202Z,99643.23
2022-09-28T00:39:41.454Z,99646.33
2022-09-28T00:42:16.445Z,99645.59
2022-09-28T00:44:58.361Z,99642.70
2022-09-28T00:47:41.565Z,99639.44
2022-09-28T00:50:18.741Z,99638.48
2022-09-28T00:57:09.897Z,99648.73
2022-09-28T00:59:38.364Z,99639.55
2022-09-28T01:02:06.941Z,99633.14
2022-09-28T01:04:38.820Z,99635.47
2022-09-28T01:07:09.330Z,99643.20
2022-09-28T01:09:40.828Z,99642.13
2022-09-28T01:12:09.235Z,99648.31
2022-09-28T01:14:38.744Z,99647.50
2022-09-28T01:17:58.124Z,99642.52
2022-09-28T01:21:07.365Z,99639.37
2022-09-28T01:24:09.844Z,99630.75
2022-09-28T01:26:59.000Z,99631.23
2022-09-28T01:29:41.684Z,99638.42
2022-09-28T01:32:13.611Z,99628.46
2022-09-28T01:34:51.205Z,99614.17
2022-09-28T01:37:22.624Z,99626.90
2022-09-28T01:39:52.862Z,99622.44
2022-09-28T01:42:27.515Z,99620.25
2022-09-28T01:45:01.653Z,99626.34
2022-09-28T01:47:37.842Z,99630.02
2022-09-28T01:50:14.646Z,99627.61
2022-09-28T01:52:49.575Z,99631.06
2022-09-28T01:55:42.613Z,99625.91
2022-09-28T01:58:37.085Z,99625.86
2022-09-28T02:01:15.456Z,99621.77
2022-09-28T02:03:55.873Z,99624.27
2022-09-28T02:06:34.262Z,99622.23
2022-09-28T02:09:10.679Z,99622.36
2022-09-28T02:11:49.091Z,99625.22
2022-09-28T02:14:19.921Z,99622.05
2022-09-28T02:16:51.088Z,99623.47
2022-09-28T02:19:28.369Z,99624.46
2022-09-28T02:22:34.964Z,99622.67
2022-09-28T02:25:20.151Z,99614.91
2022-09-28T02:27:54.029Z,99608.47
2022-09-28T02:30:52.251Z,99606.02
2022-09-28T02:33:25.625Z,99604.92
2022-09-28T02:35:53.899Z,99611.81
2022-09-28T02:38:22.566Z,99618.10
2022-09-28T02:41:13.916Z,99621.90
2022-09-28T02:43:53.207Z,99625.41
2022-09-28T02:46:35.295Z,99626.22
2022-09-28T02:49:29.852Z,99622.65
2022-09-28T02:52:00.923Z,99622.65
2022-09-28T02:54:54.794Z,99622.37
2022-09-28T02:57:41.291Z,99626.45
2022-09-28T03:00:17.775Z,99628.95
2022-09-28T03:03:16.354Z,99628.04
2022-09-28T03:05:53.076Z,99623.35
2022-09-28T03:08:32.563Z,99611.55
2022-09-28T03:11:09.766Z,99628.83
2022-09-28T03:13:38.414Z,99627.88
2022-09-28T03:16:08.229Z,99632.65
2022-09-28T03:18:36.559Z,99634.63
2022-09-28T03:21:06.156Z,99632.17
2022-09-28T03:23:34.493Z,99634.04
2022-09-28T03:26:02.926Z,99632.95
2022-09-28T03:28:31.425Z,99631.59
2022-09-28T03:30:59.654Z,99635.83
2022-09-28T03:33:27.979Z,99634.52
2022-09-28T03:35:56.147Z,99627.55
2022-09-28T03:38:25.087Z,99626.59
2022-09-28T03:40:57.606Z,99623.17
2022-09-28T03:43:27.540Z,99617.84
2022-09-28T03:46:01.377Z,99617.20
2022-09-28T03:48:33.173Z,99618.94
2022-09-28T03:51:04.638Z,99614.88
2022-09-28T03:53:33.750Z,99602.08
2022-09-28T03:56:07.822Z,99604.27
2022-09-28T03:58:36.570Z,99597.94
2022-09-28T04:01:08.097Z,99588.95
2022-09-28T04:03:37.443Z,99587.09
2022-09-28T04:06:06.112Z,99586.94
2022-09-28T04:08:34.295Z,99582.48
2022-09-28T04:11:02.782Z,99578.48
2022-09-28T04:13:31.697Z,99578.82
2022-09-28T04:16:01.717Z,99578.31
2022-09-28T04:18:33.954Z,99566.20
2022-09-28T04:21:12.978Z,99577.94
2022-09-28T04:23:45.446Z,99582.44
2022-09-28T04:26:17.007Z,99581.88
2022-09-28T04:29:06.821Z,99585.34
2022-09-28T04:31:50.190Z,99581.85
2022-09-28T04:34:21.971Z,99578.77
2022-09-28T04:36:51.330Z,99574.34
2022-09-28T04:39:20.135Z,99574.08
2022-09-28T04:41:51.339Z,99574.02
2022-09-28T04:44:19.909Z,99573.55
2022-09-28T04:46:51.763Z,99571.79
2022-09-28T04:49:32.003Z,99568.68
2022-09-28T04:52:07.713Z,99568.10
2022-09-28T04:54:36.505Z,99564.15
2022-09-28T04:57:06.227Z,99562.90
2022-09-28T04:59:34.434Z,99560.11
2022-09-28T05:02:02.682Z,99558.72
2022-09-28T05:04:49.426Z,99557.61
2022-09-28T05:07:36.966Z,99553.73
2022-09-28T05:10:32.167Z,99556.02
2022-09-28T05:13:02.312Z,99555.97
2022-09-28T05:16:00.601Z,99560.59
2022-09-28T05:18:57.334Z,99561.27
2022-09-28T05:21:26.679Z,99558.98
2022-09-28T05:23:56.794Z,99559.09
2022-09-28T05:26:50.016Z,99556.40
2022-09-28T05:29:18.250Z,99558.75
2022-09-28T05:31:52.470Z,99543.09
2022-09-28T05:34:40.842Z,99555.30
2022-09-28T05:37:11.974Z,99556.85
2022-09-28T05:39:40.566Z,99555.44
2022-09-28T05:42:08.749Z,99558.60
2022-09-28T05:44:38.633Z,99556.73
2022-09-28T05:47:06.909Z,99555.83
2022-09-28T05:49:35.073Z,99555.06
2022-09-28T05:52:04.338Z,99552.20
2022-09-28T05:54:36.110Z,99556.75
2022-09-28T05:57:30.392Z,99557.80
2022-09-28T05:59:58.865Z,99556.44
2022-09-28T06:02:56.324Z,99554.11
2022-09-28T06:05:25.197Z,99557.70
2022-09-28T06:07:56.333Z,99558.93
2022-09-28T06:11:14.791Z,99557.79
2022-09-28T06:13:42.897Z,99557.24
2022-09-28T06:16:43.837Z,99555.65
2022-09-28T06:19:13.111Z,99555.41
2022-09-28T06:21:59.617Z,99552.63
2022-09-28T06:24:28.217Z,99550.98
2022-09-28T06:26:56.446Z,99555.08
2022-09-28T06:29:54.241Z,99553.70
2022-09-28T06:32:29.893Z,99554.07
2022-09-28T06:35:23.850Z,99554.12
2022-09-28T06:37:53.438Z,99554.25
2022-09-28T06:40:22.608Z,99555.63
2022-09-28T06:43:10.167Z,99554.20
2022-09-28T06:45:57.112Z,99556.86
2022-09-28T06:48:45.779Z,99556.04
2022-09-28T06:51:18.507Z,99557.27
2022-09-28T06:54:25.889Z,99548.03
2022-09-28T06:57:22.983Z,99545.38
2022-09-28T06:59:51.191Z,99544.48
2022-09-28T07:02:20.387Z,99547.77
2022-09-28T07:05:03.919Z,99536.86
2022-09-28T07:07:56.887Z,99548.35
2022-09-28T07:10:44.298Z,99544.30
2022-09-28T07:13:49.886Z,99548.12
2022-09-28T07:16:24.278Z,99548.75
2022-09-28T07:18:55.009Z,99543.41
2022-09-28T07:21:29.663Z,99544.11
2022-09-28T07:24:00.809Z,99553.39
2022-09-28T07:26:47.259Z,99553.53
2022-09-28T07:30:01.296Z,99554.60
2022-09-28T07:32:45.855Z,99536.27
2022-09-28T07:35:24.284Z,99549.30
2022-09-28T07:38:03.689Z,99545.25
2022-09-28T07:40:53.065Z,99542.26
2022-09-28T07:43:24.461Z,99542.23
2022-09-28T07:45:55.073Z,99543.77
2022-09-28T07:48:23.433Z,99547.09
2022-09-28T07:51:11.934Z,99545.91
2022-09-28T07:53:42.633Z,99547.92
2022-09-28T07:56:32.065Z,99544.15
2022-09-28T07:59:34.332Z,99538.70
2022-09-28T08:02:21.796Z,99535.33
2022-09-28T08:04:50.473Z,99533.83
2022-09-28T08:07:23.460Z,99537.69
2022-09-28T08:09:57.898Z,99536.98
2022-09-28T08:13:00.683Z,99538.57
2022-09-28T08:16:08.551Z,99540.85
2022-09-28T08:18:49.110Z,99538.40
2022-09-28T08:21:35.925Z,99544.58
2022-09-28T08:24:33.086Z,99547.42
2022-09-28T08:27:02.053Z,99552.58
2022-09-28T08:30:00.255Z,99555.84
2022-09-28T08:32:53.301Z,99558.53
2022-09-28T08:35:28.325Z,99553.10
2022-09-28T08:38:15.551Z,99550.60
2022-09-28T08:41:17.848Z,99554.05
2022-09-28T08:44:24.471Z,99554.91
2022-09-28T08:47:39.447Z,99555.63
2022-09-28T08:50:41.824Z,99566.80
2022-09-28T08:53:57.057Z,99565.09
2022-09-28T08:56:47.742Z,99558.56
2022-09-28T08:59:22.500Z,99563.59
2022-09-28T09:02:01.501Z,99563.67
2022-09-28T09:04:33.411Z,99559.96
2022-09-28T09:07:29.699Z,99564.64
2022-09-28T09:10:35.505Z,99558.82
2022-09-28T09:13:16.947Z,99556.46
2022-09-28T09:16:15.330Z,99557.52
2022-09-28T09:19:33.324Z,99557.50
2022-09-28T09:22:51.112Z,99564.38
2022-09-28T09:25:26.548Z,99566.16
2022-09-28T09:28:09.439Z,99569.04
2022-09-28T09:31:00.286Z,99574.20
2022-09-28T09:33:52.260Z,99574.25
2022-09-28T09:36:49.503Z,99570.27
2022-09-28T09:40:05.504Z,99566.42
2022-09-28T09:43:29.518Z,99567.69
2022-09-28T09:46:28.568Z,99567.60
2022-09-28T09:49:13.199Z,99567.61
2022-09-28T09:51:52.851Z,99573.17
2022-09-28T09:54:34.192Z,99573.23
2022-09-28T09:57:14.645Z,99575.63
2022-09-28T09:59:49.896Z,99578.80
2022-09-28T10:02:26.320Z,99582.09
2022-09-28T10:05:13.576Z,99587.14
2022-09-28T10:07:54.950Z,99592.38
2022-09-28T10:10:30.257Z,99593.69
2022-09-28T10:13:09.525Z,99593.64
2022-09-28T10:15:40.289Z,99598.24
2022-09-28T10:18:35.225Z,99600.73
2022-09-28T10:21:23.960Z,99600.06
2022-09-28T10:24:02.916Z,99604.05
2022-09-28T10:26:39.385Z,99599.98
2022-09-28T10:29:20.156Z,99598.00
2022-09-28T10:31:50.841Z,99587.41
2022-09-28T10:35:19.505Z,99600.40
2022-09-28T10:38:04.656Z,99603.35
2022-09-28T10:41:00.192Z,99606.13
2022-09-28T10:44:06.852Z,99605.81
2022-09-28T10:47:01.392Z,99608.09
2022-09-28T10:49:47.346Z,99594.86
2022-09-28T10:52:36.962Z,99614.84
2022-09-28T10:55:26.855Z,99614.80
2022-09-28T10:57:55.163Z,99614.40
2022-09-28T11:00:49.993Z,99615.79
2022-09-28T11:03:24.663Z,99617.85
2022-09-28T11:05:56.037Z,99621.44
2022-09-28T11:08:46.001Z,99614.38
2022-09-28T11:11:24.857Z,99613.16
2022-09-28T11:14:01.522Z,99611.83
2022-09-28T11:16:34.728Z,99614.86
2022-09-28T11:19:27.998Z,99611.19
2022-09-28T11:21:56.143Z,99615.15
2022-09-28T11:24:31.643Z,99611.59
2022-09-28T11:27:02.286Z,99616.83
2022-09-28T11:29:51.503Z,99617.39
2022-09-28T11:32:25.552Z,99623.38
2022-09-28T11:35:32.908Z,99629.38
2022-09-28T11:38:25.520Z,99619.97
2022-09-28T11:41:48.303Z,99620.70
2022-09-28T11:44:17.585Z,99620.70
2022-09-28T11:47:00.932Z,99616.21
2022-09-28T11:49:43.937Z,99612.30
2022-09-28T11:52:58.930Z,99608.54
2022-09-28T11:55:36.310Z,99613.05
2022-09-28T11:58:10.318Z,99613.29
2022-09-28T12:00:45.018Z,99616.61
2022-09-28T12:03:18.498Z,99618.45
2022-09-28T12:06:02.537Z,99622.27
2022-09-28T12:08:35.286Z,99619.75
2022-09-28T12:11:20.327Z,99620.23
2022-09-28T12:14:23.480Z,99622.06
2022-09-28T12:17:06.846Z,99627.21
2022-09-28T12:19:50.946Z,99627.77
2022-09-28T12:22:30.136Z,99627.24
2022-09-28T12:24:59.390Z,99626.60
2022-09-28T12:27:33.720Z,99623.14
2022-09-28T12:30:14.218Z,99624.06
2022-09-28T12:32:48.461Z,99620.36
2022-09-28T12:35:54.236Z,99620.65
2022-09-28T12:39:14.708Z,99620.86
2022-09-28T12:42:18.431Z,99614.02
2022-09-28T12:45:19.580Z,99593.52
2022-09-28T12:48:08.277Z,99603.27
2022-09-28T12:50:41.723Z,99593.34
2022-09-28T12:53:32.305Z,99602.14
2022-09-28T12:56:22.062Z,99614.65
2022-09-28T12:58:56.189Z,99617.71
2022-09-28T13:01:46.787Z,99614.54
2022-09-28T13:04:39.597Z,99620.50
2022-09-28T13:07:19.999Z,99619.26
2022-09-28T13:10:23.361Z,99626.11
2022-09-28T13:13:15.543Z,99628.45
2022-09-28T13:15:46.695Z,99629.92
2022-09-28T13:18:29.325Z,99631.95
2022-09-28T13:21:20.338Z,99624.64
2022-09-28T13:23:57.861Z,99625.81
2022-09-28T13:26:40.552Z,99626.20
2022-09-28T13:29:14.782Z,99623.92
2022-09-28T13:31:50.690Z,99630.84
2022-09-28T13:34:39.580Z,99620.82
2022-09-28T13:37:24.381Z,99630.39
2022-09-28T13:39:59.971Z,99634.79
2022-09-28T13:42:46.298Z,99635.54
2022-09-28T13:45:26.739Z,99615.13
2022-09-28T13:48:04.983Z,99639.14
2022-09-28T13:50:48.418Z,99640.02
2022-09-28T13:53:36.886Z,99639.85
2022-09-28T13:56:24.699Z,99640.23
2022-09-28T13:59:05.418Z,99651.21
2022-09-28T14:01:41.059Z,99649.36
2022-09-28T14:04:22.018Z,99650.48
2022-09-28T14:06:55.504Z,99651.94
2022-09-28T14:09:24.062Z,99650.69
2022-09-28T14:12:02.758Z,99649.61
2022-09-28T14:14:52.119Z,99653.44
2022-09-28T14:17:23.665Z,99652.15
2022-09-28T14:20:15.588Z,99654.31
2022-09-28T14:22:58.061Z,99650.82
2022-09-28T14:25:44.532Z,99652.02
2022-09-28T14:28:46.042Z,99655.16
2022-09-28T14:31:32.608Z,99655.89
2022-09-28T14:34:03.538Z,99658.15
2022-09-28T14:37:06.419Z,99658.45
2022-09-28T14:39:55.872Z,99660.83
2022-09-28T14:42:25.998Z,99661.39
2022-09-28T14:45:06.365Z,99663.98
2022-09-28T14:47:55.956Z,99666.42
2022-09-28T14:50:27.219Z,99673.84
2022-09-28T14:53:04.415Z,99674.50
2022-09-28T14:55:41.175Z,99678.95
2022-09-28T14:58:19.161Z,99682.52
2022-09-28T15:00:50.423Z,99684.44
2022-09-28T15:03:20.887Z,99685.84
2022-09-28T15:06:40.547Z,99687.21
2022-09-28T15:09:26.387Z,99691.19
2022-09-28T15:12:02.789Z,99694.87
2022-09-28T15:14:34.543Z,99690.22
2022-09-28T15:17:10.817Z,99691.40
2022-09-28T15:20:14.019Z,99689.05
2022-09-28T15:22:47.200Z,99690.10
2022-09-28T15:25:20.139Z,99691.15
2022-09-28T15:28:13.395Z,99695.56
2022-09-28T15:30:41.582Z,99697.53
2022-09-28T15:33:42.910Z,99698.15
2022-09-28T15:36:39.991Z,99699.09
2022-09-28T15:39:15.452Z,99702.69
2022-09-28T15:41:46.444Z,99704.00
2022-09-28T15:44:30.100Z,99706.48
2022-09-28T15:47:10.023Z,99708.77
2022-09-28T15:49:44.494Z,99712.17
2022-09-28T15:52:47.291Z,99712.10
2022-09-28T15:55:27.724Z,99698.79
2022-09-28T15:58:05.877Z,99710.51
2022-09-28T16:00:35.106Z,99711.52
2022-09-28T16:03:09.381Z,99715.23
2022-09-28T16:05:48.461Z,99713.79
2022-09-28T16:08:26.034Z,99715.31
2022-09-28T16:11:10.987Z,99713.70
2022-09-28T16:14:06.251Z,99701.85
2022-09-28T16:16:46.960Z,99717.73
2022-09-28T16:19:24.196Z,99719.38
2022-09-28T16:21:56.754Z,99720.27
2022-09-28T16:24:30.506Z,99723.05
2022-09-28T16:27:02.715Z,99721.92
2022-09-28T16:29:40.302Z,99725.27
2022-09-28T16:32:26.728Z,99724.06
2022-09-28T16:35:13.060Z,99720.58
2022-09-28T16:37:42.851Z,99720.52
2022-09-28T16:40:12.511Z,99721.19
2022-09-28T16:42:48.686Z,99722.49
2022-09-28T16:45:23.934Z,99721.31
2022-09-28T16:47:53.029Z,99722.84
2022-09-28T16:50:22.163Z,99719.96
2022-09-28T16:53:17.739Z,99723.15
2022-09-28T16:55:48.441Z,99727.23
2022-09-28T16:58:16.892Z,99722.83
2022-09-28T17:00:45.910Z,99724.91
2022-09-28T17:03:17.885Z,99723.13
2022-09-28T17:05:48.158Z,99728.09
2022-09-28T17:08:18.519Z,99729.59
2022-09-28T17:11:13.867Z,99732.70
2022-09-28T17:13:45.290Z,99732.68
2022-09-28T17:16:17.955Z,99733.19
2022-09-28T17:18:48.392Z,99731.00
2022-09-28T17:21:19.306Z,99733.41
2022-09-28T17:23:49.671Z,99731.23
2022-09-28T17:26:27.393Z,99730.42
2022-09-28T17:28:55.597Z,99731.70
2022-09-28T17:31:23.917Z,99732.15
2022-09-28T17:33:52.456Z,99730.00
2022-09-28T17:36:21.640Z,99728.25
2022-09-28T17:38:51.836Z,99725.17
2022-09-28T17:41:21.233Z,99723.16
2022-09-28T17:43:49.835Z,99723.66
2022-09-28T17:46:30.185Z,99725.13
2022-09-28T17:49:00.233Z,99726.94
2022-09-28T17:51:30.498Z,99725.30
2022-09-28T17:54:01.105Z,99726.93
2022-09-28T17:56:32.518Z,99726.51
2022-09-28T17:59:03.949Z,99723.66
2022-09-28T18:01:34.802Z,99723.52
2022-09-28T18:04:09.026Z,99724.05
2022-09-28T18:06:37.523Z,99723.09
2022-09-28T18:09:05.981Z,99724.70
2022-09-28T18:11:35.356Z,99726.39
2022-09-28T18:14:06.726Z,99728.00
2022-09-28T18:16:37.390Z,99728.74
2022-09-28T18:19:05.559Z,99731.02
2022-09-28T18:21:33.836Z,99731.79
2022-09-28T18:24:02.277Z,99732.26
2022-09-28T18:26:30.623Z,99732.55
2022-09-28T18:28:58.799Z,99732.28
2022-09-28T18:31:27.955Z,99728.74
2022-09-28T18:34:01.108Z,99729.45
2022-09-28T18:36:30.992Z,99732.48
2022-09-28T18:39:01.638Z,99739.21
2022-09-28T18:41:29.847Z,99740.96
2022-09-28T18:44:01.015Z,99740.23
2022-09-28T18:46:36.916Z,99731.52
2022-09-28T18:49:05.259Z,99734.01
2022-09-28T18:51:33.400Z,99742.20
2022-09-28T18:54:06.868Z,99743.94
2022-09-28T18:56:37.452Z,99743.70
2022-09-28T18:59:11.725Z,99739.73
2022-09-28T19:01:42.096Z,99738.10
2022-09-28T19:04:11.476Z,99741.69
2022-09-28T19:06:41.952Z,99740.12
2022-09-28T19:09:10.676Z,99741.11
2022-09-28T19:11:38.924Z,99745.70
2022-09-28T19:14:07.074Z,99743.70
2022-09-28T19:16:35.316Z,99743.78
2022-09-28T19:19:03.664Z,99743.64
2022-09-28T19:21:32.091Z,99745.88
2022-09-28T19:24:01.413Z,99744.92
2022-09-28T19:26:30.573Z,99741.45
2022-09-28T19:28:59.294Z,99741.45
2022-09-28T19:31:27.703Z,99744.98
2022-09-28T19:33:55.954Z,99741.14
2022-09-28T19:36:28.693Z,99741.14
2022-09-28T19:39:02.914Z,99735.70
2022-09-28T19:41:51.632Z,99734.39
2022-09-28T19:44:29.866Z,99732.58
2022-09-28T19:47:26.799Z,99715.16
2022-09-28T19:49:55.106Z,99726.59
2022-09-28T19:52:48.210Z,99720.71
2022-09-28T19:55:17.436Z,99719.20
2022-09-28T19:57:47.842Z,99710.42
2022-09-28T20:00:16.925Z,99726.47
2022-09-28T20:02:45.268Z,99728.08
2022-09-28T20:05:13.598Z,99730.91
2022-09-28T20:07:41.750Z,99711.98
2022-09-28T20:10:12.093Z,99744.30
2022-09-28T20:12:42.321Z,99726.77
2022-09-28T20:15:10.771Z,99748.55
2022-09-28T20:17:39.196Z,99751.94
2022-09-28T20:20:07.725Z,99750.20
2022-09-28T20:22:37.159Z,99754.73
2022-09-28T20:25:05.706Z,99758.82
2022-09-28T20:27:33.937Z,99758.84
2022-09-28T20:30:02.707Z,99758.95
2022-09-28T20:32:35.874Z,99761.70
2022-09-28T20:35:04.538Z,99765.88
2022-09-28T20:37:33.693Z,99764.59
2022-09-28T20:40:02.211Z,99763.32
2022-09-28T20:42:32.120Z,99760.19
2022-09-28T20:45:00.417Z,99764.24
2022-09-28T20:47:28.609Z,99764.66
2022-09-28T20:49:56.855Z,99768.16
2022-09-28T20:52:25.215Z,99770.36
2022-09-28T20:54:53.416Z,99771.55
2022-09-28T20:57:21.719Z,99772.10
2022-09-28T20:59:53.765Z,99778.23
2022-09-28T21:02:23.093Z,99778.80
2022-09-28T21:04:51.808Z,99767.65
2022-09-28T21:07:20.005Z,99779.86
2022-09-28T21:09:48.562Z,99785.45
2022-09-28T21:12:17.277Z,99774.81
2022-09-28T21:15:13.804Z,99793.53
2022-09-28T21:18:08.608Z,99792.63
2022-09-28T21:20:36.727Z,99795.30
2022-09-28T21:23:05.049Z,99799.38
2022-09-28T21:25:36.404Z,99801.05
2022-09-28T21:28:04.452Z,99802.09
2022-09-28T21:30:57.602Z,99803.77
2022-09-28T21:33:50.868Z,99804.70
2022-09-28T21:36:19.096Z,99808.24
2022-09-28T21:38:47.248Z,99804.79
2022-09-28T21:41:41.084Z,99809.89
2022-09-28T21:44:09.567Z,99812.89
2022-09-28T21:46:38.787Z,99816.25
2022-09-28T21:49:58.598Z,99818.59
2022-09-28T21:52:26.916Z,99820.55
2022-09-28T21:54:55.208Z,99819.09
2022-09-28T21:57:23.431Z,99819.63
2022-09-28T21:59:51.690Z,99822.58
2022-09-28T22:02:50.627Z,99825.71
2022-09-28T22:05:20.165Z,99834.05
2022-09-28T22:07:48.398Z,99836.40
2022-09-28T22:10:16.670Z,99828.09
2022-09-28T22:12:44.909Z,99827.59
2022-09-28T22:15:13.049Z,99842.76
2022-09-28T22:17:41.161Z,99844.84
2022-09-28T22:20:09.393Z,99842.20
2022-09-28T22:23:07.821Z,99839.70
2022-09-28T22:25:35.909Z,99839.21
2022-09-28T22:28:04.102Z,99843.78
2022-09-28T22:30:34.721Z,99844.23
2022-09-28T22:33:53.955Z,99842.09
2022-09-28T22:36:50.185Z,99841.16
2022-09-28T22:39:18.377Z,99835.61
2022-09-28T22:42:38.277Z,99837.08
2022-09-28T22:45:07.070Z,99833.96
2022-09-28T22:48:00.423Z,99836.28
2022-09-28T22:50:28.619Z,99831.27
2022-09-28T22:52:56.832Z,99827.73
2022-09-28T22:55:25.007Z,99829.48
2022-09-28T22:57:53.167Z,99829.27
2022-09-28T23:00:47.236Z,99831.38
2022-09-28T23:03:16.357Z,99831.77
2022-09-28T23:06:10.247Z,99830.48
2022-09-28T23:08:45.859Z,99827.80
2022-09-28T23:11:14.900Z,99825.92
2022-09-28T23:13:50.843Z,99825.98
2022-09-28T23:16:19.732Z,99825.41
2022-09-28T23:19:37.568Z,99823.83
2022-09-28T23:22:55.748Z,99825.27
2022-09-28T23:25:23.892Z,99822.84
2022-09-28T23:27:51.999Z,99812.62
2022-09-28T23:30:21.430Z,99819.64
2022-09-28T23:32:52.316Z,99818.52
2022-09-28T23:35:20.553Z,99815.06
2022-09-28T23:37:51.923Z,99816.38
2022-09-28T23:40:20.157Z,99812.43
2022-09-28T23:42:48.339Z,99811.02
2022-09-28T23:45:45.876Z,99806.11
2022-09-28T23:48:15.265Z,99809.10
2022-09-28T23:50:44.512Z,99808.84
2022-09-28T23:53:37.728Z,99806.27
2022-09-28T23:56:06.284Z,99806.84
2022-09-28T23:58:34.640Z,99804.67
